createdAt,value
2022-11-04T00:00:03.910Z,98528.97
2022-11-04T00:00:35.598Z,98540.97
2022-11-04T00:01:07.210Z,98533.25
2022-11-04T00:01:41.330Z,98534.06
2022-11-04T00:02:12.948Z,98539.75
2022-11-04T00:02:44.763Z,98533.59
2022-11-04T00:03:16.417Z,98536.09
2022-11-04T00:03:48.017Z,98536.28
2022-11-04T00:04:20.245Z,98530.69
2022-11-04T00:04:51.826Z,98534.38
2022-11-04T00:05:23.423Z,98530.97
2022-11-04T00:05:54.970Z,98535.38
2022-11-04T00:06:26.542Z,98543.34
2022-11-04T00:06:58.014Z,98547.00
2022-11-04T00:07:29.578Z,98544.22
2022-11-04T00:08:01.077Z,98547.69
2022-11-04T00:08:32.617Z,98543.81
2022-11-04T00:09:04.509Z,98542.44
2022-11-04T00:09:36.020Z,98544.53
2022-11-04T00:10:07.742Z,98541.50
2022-11-04T00:10:39.363Z,98538.19
2022-11-04T00:11:10.943Z,98549.16
2022-11-04T00:11:42.566Z,98546.31
2022-11-04T00:12:14.113Z,98543.47
2022-11-04T00:12:45.675Z,98548.78
2022-11-04T00:13:17.246Z,98548.91
2022-11-04T00:13:48.836Z,98544.41
2022-11-04T00:14:20.395Z,98549.63
2022-11-04T00:14:51.984Z,98547.69
2022-11-04T00:15:23.615Z,98544.22
2022-11-04T00:15:55.125Z,98543.69
2022-11-04T00:16:26.650Z,98545.72
2022-11-04T00:16:58.386Z,98543.69
2022-11-04T00:17:29.938Z,98545.34
2022-11-04T00:18:01.444Z,98538.63
2022-11-04T00:18:32.954Z,98539.63
2022-11-04T00:19:04.470Z,98541.31
2022-11-04T00:19:36.020Z,98545.63
2022-11-04T00:20:07.968Z,98544.16
2022-11-04T00:20:39.647Z,98546.63
2022-11-04T00:21:11.178Z,98552.31
2022-11-04T00:21:42.744Z,98553.81
2022-11-04T00:22:14.325Z,98551.78
2022-11-04T00:22:47.631Z,98558.63
2022-11-04T00:23:19.197Z,98556.50
2022-11-04T00:23:50.707Z,98559.34
2022-11-04T00:24:22.255Z,98566.69
2022-11-04T00:24:53.701Z,98571.28
2022-11-04T00:25:25.307Z,98575.69
2022-11-04T00:25:56.828Z,98574.88
2022-11-04T00:26:28.368Z,98572.50
2022-11-04T00:26:59.916Z,98566.19
2022-11-04T00:27:31.547Z,98565.22
2022-11-04T00:28:04.091Z,98572.31
2022-11-04T00:28:35.672Z,98572.03
2022-11-04T00:29:07.232Z,98574.88
2022-11-04T00:29:38.767Z,98572.22
2022-11-04T00:30:10.719Z,98583.88
2022-11-04T00:30:42.317Z,98583.69
2022-11-04T00:31:13.962Z,98580.22
2022-11-04T00:31:45.353Z,98588.88
2022-11-04T00:32:16.940Z,98587.19
2022-11-04T00:32:48.420Z,98592.41
2022-11-04T00:33:19.976Z,98577.91
2022-11-04T00:33:51.981Z,98591.13
2022-11-04T00:34:23.446Z,98584.59
2022-11-04T00:34:55.042Z,98587.25
2022-11-04T00:35:26.567Z,98590.94
2022-11-04T00:35:58.118Z,98592.28
2022-11-04T00:36:29.633Z,98599.78
2022-11-04T00:37:01.157Z,98600.59
2022-11-04T00:37:32.614Z,98597.41
2022-11-04T00:38:04.191Z,98600.34
2022-11-04T00:38:35.732Z,98607.34
2022-11-04T00:39:07.238Z,98602.66
2022-11-04T00:39:38.753Z,98599.53
2022-11-04T00:40:11.041Z,98598.22
2022-11-04T00:40:42.644Z,98594.97
2022-11-04T00:41:14.400Z,98581.75
2022-11-04T00:41:45.959Z,98582.72
2022-11-04T00:42:17.598Z,98577.72
2022-11-04T00:42:49.192Z,98575.75
2022-11-04T00:43:20.739Z,98574.38
2022-11-04T00:43:52.894Z,98580.22
2022-11-04T00:44:24.466Z,98585.84
2022-11-04T00:44:56.082Z,98588.50
2022-11-04T00:45:27.679Z,98593.84
2022-11-04T00:45:59.384Z,98595.47
2022-11-04T00:46:31.489Z,98595.47
2022-11-04T00:47:03.073Z,98606.41
2022-11-04T00:47:34.588Z,98601.38
2022-11-04T00:48:06.461Z,98600.34
2022-11-04T00:48:38.139Z,98599.19
2022-11-04T00:49:09.666Z,98599.72
2022-11-04T00:49:41.264Z,98591.34
2022-11-04T00:50:12.865Z,98597.69
2022-11-04T00:50:44.457Z,98585.38
2022-11-04T00:51:16.064Z,98588.03
2022-11-04T00:51:47.669Z,98591.81
2022-11-04T00:52:19.380Z,98588.97
2022-11-04T00:52:50.984Z,98596.69
2022-11-04T00:53:22.512Z,98592.13
2022-11-04T00:53:54.107Z,98595.31
2022-11-04T00:54:25.706Z,98602.09
2022-11-04T00:54:57.302Z,98597.03
2022-11-04T00:55:28.849Z,98597.41
2022-11-04T00:56:00.479Z,98606.41
2022-11-04T00:56:32.066Z,98597.03
2022-11-04T00:57:03.888Z,98595.19
2022-11-04T00:57:35.538Z,98604.69
2022-11-04T00:58:07.074Z,98594.19
2022-11-04T00:58:38.563Z,98601.06
2022-11-04T00:59:11.912Z,98600.06
2022-11-04T00:59:46.062Z,98605.69
2022-11-04T01:00:17.650Z,98611.03
2022-11-04T01:00:49.220Z,98607.81
2022-11-04T01:01:20.896Z,98608.81
2022-11-04T01:01:52.728Z,98607.34
2022-11-04T01:02:25.666Z,98608.53
2022-11-04T01:02:57.331Z,98608.06
2022-11-04T01:03:28.889Z,98611.25
2022-11-04T01:04:00.534Z,98604.06
2022-11-04T01:04:32.157Z,98615.94
2022-11-04T01:05:03.931Z,98612.09
2022-11-04T01:05:37.155Z,98610.56
2022-11-04T01:06:08.809Z,98599.41
2022-11-04T01:06:40.405Z,98610.31
2022-11-04T01:07:12.056Z,98609.97
2022-11-04T01:07:43.996Z,98613.69
2022-11-04T01:08:15.771Z,98612.19
2022-11-04T01:08:47.386Z,98618.38
2022-11-04T01:09:18.926Z,98629.16
2022-11-04T01:09:50.547Z,98627.25
2022-11-04T01:10:22.239Z,98621.41
2022-11-04T01:10:53.845Z,98629.75
2022-11-04T01:11:25.743Z,98635.78
2022-11-04T01:11:57.326Z,98645.38
2022-11-04T01:12:28.974Z,98636.56
2022-11-04T01:13:00.525Z,98642.06
2022-11-04T01:13:32.211Z,98647.44
2022-11-04T01:14:03.871Z,98654.91
2022-11-04T01:14:35.392Z,98653.41
2022-11-04T01:15:07.181Z,98650.72
2022-11-04T01:15:38.725Z,98646.03
2022-11-04T01:16:10.615Z,98653.22
2022-11-04T01:16:42.281Z,98649.88
2022-11-04T01:17:13.864Z,98650.25
2022-11-04T01:17:45.493Z,98642.91
2022-11-04T01:18:17.004Z,98654.16
2022-11-04T01:18:48.710Z,98647.66
2022-11-04T01:19:20.277Z,98660.31
2022-11-04T01:19:51.941Z,98655.66
2022-11-04T01:20:23.481Z,98653.81
2022-11-04T01:20:55.007Z,98655.84
2022-11-04T01:21:26.505Z,98649.13
2022-11-04T01:21:58.079Z,98657.13
2022-11-04T01:22:29.604Z,98656.47
2022-11-04T01:23:01.136Z,98648.47
2022-11-04T01:23:33.833Z,98640.81
2022-11-04T01:24:05.544Z,98648.53
2022-11-04T01:24:37.072Z,98642.50
2022-11-04T01:25:09.012Z,98642.78
2022-11-04T01:25:40.589Z,98649.47
2022-11-04T01:26:18.826Z,98644.81
2022-11-04T01:26:50.283Z,98651.78
2022-11-04T01:27:21.931Z,98657.13
2022-11-04T01:27:53.407Z,98664.78
2022-11-04T01:28:24.999Z,98660.47
2022-11-04T01:28:56.759Z,98664.13
2022-11-04T01:29:28.312Z,98650.44
2022-11-04T01:29:59.831Z,98649.06
2022-11-04T01:30:31.407Z,98659.28
2022-11-04T01:31:09.426Z,98660.59
2022-11-04T01:31:41.073Z,98658.09
2022-11-04T01:32:12.641Z,98652.06
2022-11-04T01:32:44.271Z,98659.69
2022-11-04T01:33:15.800Z,98652.38
2022-11-04T01:33:47.596Z,98656.16
2022-11-04T01:34:19.188Z,98650.00
2022-11-04T01:34:50.762Z,98650.16
2022-11-04T01:35:22.314Z,98659.00
2022-11-04T01:35:53.795Z,98662.69
2022-11-04T01:36:25.659Z,98662.00
2022-11-04T01:36:57.198Z,98667.19
2022-11-04T01:37:28.816Z,98662.00
2022-11-04T01:38:00.315Z,98660.38
2022-11-04T01:38:31.895Z,98654.69
2022-11-04T01:39:03.551Z,98666.34
2022-11-04T01:39:35.091Z,98658.34
2022-11-04T01:40:06.921Z,98674.13
2022-11-04T01:40:38.899Z,98669.25
2022-11-04T01:41:11.963Z,98663.44
2022-11-04T01:41:43.500Z,98670.28
2022-11-04T01:42:15.067Z,98664.44
2022-11-04T01:42:46.627Z,98666.34
2022-11-04T01:43:18.961Z,98670.34
2022-11-04T01:43:51.460Z,98672.13
2022-11-04T01:44:41.329Z,98672.31
2022-11-04T01:45:13.093Z,98678.78
2022-11-04T01:45:45.007Z,98670.41
2022-11-04T01:46:28.393Z,98663.28
2022-11-04T01:46:59.937Z,98663.28
2022-11-04T01:47:40.208Z,98666.75
2022-11-04T01:48:22.190Z,98664.63
2022-11-04T01:48:54.083Z,98668.09
2022-11-04T01:49:33.210Z,98670.91
2022-11-04T01:50:11.308Z,98663.09
2022-11-04T01:50:42.842Z,98673.41
2022-11-04T01:51:14.510Z,98672.56
2022-11-04T01:51:46.202Z,98657.75
2022-11-04T01:52:19.043Z,98676.09
2022-11-04T01:52:54.745Z,98677.06
2022-11-04T01:53:30.628Z,98662.75
2022-11-04T01:54:02.085Z,98669.25
2022-11-04T01:54:33.736Z,98676.09
2022-11-04T01:55:06.943Z,98667.28
2022-11-04T01:55:40.699Z,98675.47
2022-11-04T01:56:12.622Z,98673.09
2022-11-04T01:56:44.052Z,98679.44
2022-11-04T01:57:18.119Z,98679.78
2022-11-04T01:57:49.870Z,98679.16
2022-11-04T01:58:22.015Z,98670.63
2022-11-04T01:58:53.968Z,98674.81
2022-11-04T01:59:26.481Z,98671.97
2022-11-04T01:59:58.618Z,98673.13
2022-11-04T02:00:30.147Z,98668.47
2022-11-04T02:01:01.902Z,98667.94
2022-11-04T02:01:33.545Z,98666.28
2022-11-04T02:02:05.308Z,98673.09
2022-11-04T02:02:37.697Z,98679.44
2022-11-04T02:03:16.144Z,98671.09
2022-11-04T02:03:49.369Z,98677.06
2022-11-04T02:04:20.914Z,98677.44
2022-11-04T02:04:52.488Z,98671.09
2022-11-04T02:05:23.975Z,98680.91
2022-11-04T02:05:55.548Z,98678.97
2022-11-04T02:06:27.154Z,98678.41
2022-11-04T02:07:01.345Z,98679.75
2022-11-04T02:07:32.900Z,98686.25
2022-11-04T02:08:04.709Z,98680.28
2022-11-04T02:08:36.319Z,98684.59
2022-11-04T02:09:44.357Z,98678.38
2022-11-04T02:10:15.892Z,98686.47
2022-11-04T02:10:49.052Z,98690.47
2022-11-04T02:11:20.672Z,98687.78
2022-11-04T02:11:52.239Z,98688.09
2022-11-04T02:12:23.760Z,98691.59
2022-11-04T02:12:55.545Z,98679.75
2022-11-04T02:13:27.453Z,98680.22
2022-11-04T02:13:59.066Z,98685.38
2022-11-04T02:14:30.931Z,98688.69
2022-11-04T02:15:02.615Z,98691.88
2022-11-04T02:15:40.078Z,98693.22
2022-11-04T02:16:18.040Z,98690.06
2022-11-04T02:16:49.603Z,98695.06
2022-11-04T02:17:36.071Z,98699.03
2022-11-04T02:18:10.376Z,98699.19
2022-11-04T02:18:44.824Z,98696.19
2022-11-04T02:19:23.410Z,98700.03
2022-11-04T02:20:00.595Z,98697.38
2022-11-04T02:20:55.268Z,98701.03
2022-11-04T02:21:35.734Z,98692.38
2022-11-04T02:22:25.681Z,98695.69
2022-11-04T02:23:15.716Z,98698.06
2022-11-04T02:24:05.450Z,98689.41
2022-11-04T02:24:54.914Z,98692.75
2022-11-04T02:25:26.429Z,98685.91
2022-11-04T02:26:17.608Z,98688.41
2022-11-04T02:26:56.139Z,98690.13
2022-11-04T02:27:37.645Z,98687.75
2022-11-04T02:28:27.564Z,98684.09
2022-11-04T02:29:06.651Z,98673.72
2022-11-04T02:29:44.182Z,98682.53
2022-11-04T02:30:16.410Z,98679.53
2022-11-04T02:30:52.356Z,98682.38
2022-11-04T02:31:30.579Z,98680.00
2022-11-04T02:32:20.132Z,98677.78
2022-11-04T02:33:00.465Z,98680.41
2022-11-04T02:33:37.718Z,98683.72
2022-11-04T02:34:11.381Z,98683.19
2022-11-04T02:34:45.681Z,98677.56
2022-11-04T02:35:17.233Z,98675.28
2022-11-04T02:35:57.744Z,98683.94
2022-11-04T02:36:50.262Z,98676.72
2022-11-04T02:37:28.446Z,98682.06
2022-11-04T02:38:07.206Z,98674.34
2022-11-04T02:38:47.574Z,98681.72
2022-11-04T02:39:23.043Z,98683.00
2022-11-04T02:39:55.678Z,98675.69
2022-11-04T02:40:36.241Z,98674.72
2022-11-04T02:41:15.192Z,98677.84
2022-11-04T02:41:53.335Z,98674.00
2022-11-04T02:42:26.358Z,98667.47
2022-11-04T02:43:15.753Z,98672.81
2022-11-04T02:43:53.225Z,98675.66
2022-11-04T02:44:32.164Z,98680.53
2022-11-04T02:45:09.418Z,98676.72
2022-11-04T02:45:40.905Z,98680.28
2022-11-04T02:46:25.443Z,98679.91
2022-11-04T02:47:06.060Z,98670.41
2022-11-04T02:47:38.389Z,98680.03
2022-11-04T02:48:11.315Z,98681.38
2022-11-04T02:48:45.935Z,98682.28
2022-11-04T02:49:19.633Z,98673.41
2022-11-04T02:49:52.532Z,98674.34
2022-11-04T02:50:25.877Z,98689.03
2022-11-04T02:51:05.071Z,98687.06
2022-11-04T02:51:47.400Z,98677.78
2022-11-04T02:52:19.982Z,98682.75
2022-11-04T02:52:51.630Z,98681.09
2022-11-04T02:53:38.357Z,98681.44
2022-11-04T02:54:12.696Z,98680.63
2022-11-04T02:54:46.168Z,98679.44
2022-11-04T02:55:20.168Z,98686.38
2022-11-04T02:55:52.595Z,98675.34
2022-11-04T02:56:24.201Z,98683.88
2022-11-04T02:56:56.262Z,98694.31
2022-11-04T02:57:31.644Z,98677.50
2022-11-04T02:58:03.489Z,98689.03
2022-11-04T02:58:38.823Z,98692.09
2022-11-04T02:59:42.632Z,98686.06
2022-11-04T03:00:14.414Z,98686.19
2022-11-04T03:00:46.121Z,98696.06
2022-11-04T03:01:17.958Z,98689.41
2022-11-04T03:01:49.794Z,98690.75
2022-11-04T03:02:26.746Z,98690.13
2022-11-04T03:03:01.902Z,98689.78
2022-11-04T03:03:34.527Z,98691.06
2022-11-04T03:04:29.263Z,98694.75
2022-11-04T03:05:00.877Z,98694.78
2022-11-04T03:05:33.462Z,98691.94
2022-11-04T03:06:05.183Z,98695.94
2022-11-04T03:06:36.790Z,98695.44
2022-11-04T03:07:08.796Z,98698.16
2022-11-04T03:07:40.762Z,98699.28
2022-11-04T03:08:18.336Z,98699.00
2022-11-04T03:08:51.283Z,98703.81
2022-11-04T03:09:23.060Z,98708.84
2022-11-04T03:09:55.928Z,98699.81
2022-11-04T03:10:37.179Z,98705.16
2022-11-04T03:11:11.445Z,98701.78
2022-11-04T03:11:44.176Z,98697.09
2022-11-04T03:12:17.058Z,98706.25
2022-11-04T03:12:50.786Z,98708.28
2022-11-04T03:13:29.320Z,98706.59
2022-11-04T03:14:07.292Z,98708.78
2022-11-04T03:14:42.504Z,98694.25
2022-11-04T03:15:16.538Z,98706.81
2022-11-04T03:15:49.149Z,98704.31
2022-11-04T03:16:22.793Z,98707.47
2022-11-04T03:16:54.768Z,98699.13
2022-11-04T03:17:33.379Z,98704.16
2022-11-04T03:18:15.252Z,98707.34
2022-11-04T03:19:02.601Z,98697.31
2022-11-04T03:19:52.622Z,98709.13
2022-11-04T03:20:25.506Z,98699.81
2022-11-04T03:20:57.228Z,98706.31
2022-11-04T03:21:28.966Z,98709.13
2022-11-04T03:22:04.515Z,98704.81
2022-11-04T03:22:36.133Z,98709.84
2022-11-04T03:23:07.785Z,98709.66
2022-11-04T03:23:39.457Z,98705.66
2022-11-04T03:24:11.024Z,98706.81
2022-11-04T03:24:42.644Z,98703.50
2022-11-04T03:25:14.271Z,98711.00
2022-11-04T03:25:46.452Z,98706.00
2022-11-04T03:26:17.971Z,98708.84
2022-11-04T03:26:51.841Z,98707.34
2022-11-04T03:27:23.353Z,98706.81
2022-11-04T03:28:01.216Z,98707.50
2022-11-04T03:28:42.023Z,98707.97
2022-11-04T03:29:13.671Z,98711.81
2022-11-04T03:29:55.515Z,98705.44
2022-11-04T03:30:27.116Z,98704.31
2022-11-04T03:30:59.426Z,98709.78
2022-11-04T03:31:42.415Z,98713.09
2022-11-04T03:32:17.739Z,98700.44
2022-11-04T03:33:08.216Z,98701.59
2022-11-04T03:33:50.217Z,98703.13
2022-11-04T03:34:21.791Z,98704.09
2022-11-04T03:34:53.406Z,98703.28
2022-11-04T03:35:24.983Z,98707.28
2022-11-04T03:35:56.543Z,98705.44
2022-11-04T03:36:28.121Z,98707.94
2022-11-04T03:36:59.808Z,98710.31
2022-11-04T03:37:31.855Z,98708.97
2022-11-04T03:38:03.435Z,98703.28
2022-11-04T03:38:35.585Z,98699.13
2022-11-04T03:39:07.099Z,98714.94
2022-11-04T03:39:38.752Z,98712.50
2022-11-04T03:40:10.605Z,98699.47
2022-11-04T03:40:42.175Z,98710.13
2022-11-04T03:41:15.710Z,98712.31
2022-11-04T03:41:48.462Z,98707.81
2022-11-04T03:42:20.565Z,98712.31
2022-11-04T03:42:54.196Z,98709.66
2022-11-04T03:43:26.160Z,98714.34
2022-11-04T03:43:57.687Z,98708.34
2022-11-04T03:44:29.542Z,98704.31
2022-11-04T03:45:01.149Z,98706.00
2022-11-04T03:45:32.660Z,98714.34
2022-11-04T03:46:04.272Z,98713.00
2022-11-04T03:46:35.818Z,98714.03
2022-11-04T03:47:07.413Z,98709.53
2022-11-04T03:47:39.027Z,98711.16
2022-11-04T03:48:10.599Z,98715.03
2022-11-04T03:48:42.172Z,98717.69
2022-11-04T03:49:13.723Z,98716.50
2022-11-04T03:49:45.940Z,98715.56
2022-11-04T03:50:21.877Z,98716.03
2022-11-04T03:50:53.428Z,98702.03
2022-11-04T03:51:25.004Z,98708.19
2022-11-04T03:51:57.499Z,98716.88
2022-11-04T03:52:29.067Z,98712.03
2022-11-04T03:53:00.618Z,98711.84
2022-11-04T03:53:32.226Z,98713.84
2022-11-04T03:54:03.996Z,98714.53
2022-11-04T03:54:35.540Z,98722.53
2022-11-04T03:55:07.431Z,98713.66
2022-11-04T03:55:57.250Z,98718.00
2022-11-04T03:56:47.222Z,98712.50
2022-11-04T03:57:30.821Z,98714.16
2022-11-04T03:58:04.072Z,98722.00
2022-11-04T03:58:54.010Z,98721.84
2022-11-04T03:59:31.930Z,98726.19
2022-11-04T04:00:09.706Z,98726.19
2022-11-04T04:00:44.305Z,98725.84
2022-11-04T04:01:34.660Z,98721.69
2022-11-04T04:02:09.700Z,98722.88
2022-11-04T04:02:41.348Z,98729.66
2022-11-04T04:03:16.187Z,98720.66
2022-11-04T04:03:57.960Z,98719.50
2022-11-04T04:04:33.352Z,98725.84
2022-11-04T04:05:08.103Z,98719.16
2022-11-04T04:05:51.255Z,98720.22
2022-11-04T04:06:25.320Z,98730.22
2022-11-04T04:07:23.305Z,98735.19
2022-11-04T04:07:56.868Z,98731.22
2022-11-04T04:08:31.228Z,98734.38
2022-11-04T04:09:12.045Z,98733.56
2022-11-04T04:09:44.926Z,98734.03
2022-11-04T04:10:17.547Z,98728.53
2022-11-04T04:10:51.856Z,98735.03
2022-11-04T04:11:26.773Z,98738.56
2022-11-04T04:11:59.958Z,98729.22
2022-11-04T04:12:33.752Z,98741.41
2022-11-04T04:13:31.188Z,98738.91
2022-11-04T04:14:05.456Z,98737.72
2022-11-04T04:14:42.859Z,98746.25
2022-11-04T04:15:17.858Z,98741.56
2022-11-04T04:15:50.867Z,98737.53
2022-11-04T04:16:27.214Z,98744.53
2022-11-04T04:16:58.835Z,98738.91
2022-11-04T04:17:32.947Z,98743.91
2022-11-04T04:18:06.062Z,98742.69
2022-11-04T04:18:37.854Z,98741.72
2022-11-04T04:19:09.484Z,98747.06
2022-11-04T04:19:42.281Z,98747.91
2022-11-04T04:20:18.140Z,98741.41
2022-11-04T04:20:49.709Z,98740.19
2022-11-04T04:21:21.960Z,98742.56
2022-11-04T04:21:59.232Z,98744.53
2022-11-04T04:22:59.906Z,98746.56
2022-11-04T04:23:31.682Z,98741.22
2022-11-04T04:24:03.602Z,98742.22
2022-11-04T04:24:35.754Z,98743.22
2022-11-04T04:25:07.650Z,98739.56
2022-11-04T04:25:39.262Z,98736.88
2022-11-04T04:26:10.860Z,98742.56
2022-11-04T04:26:42.463Z,98745.88
2022-11-04T04:27:14.023Z,98736.56
2022-11-04T04:27:45.576Z,98735.03
2022-11-04T04:28:17.446Z,98736.53
2022-11-04T04:28:49.035Z,98738.25
2022-11-04T04:29:20.914Z,98736.22
2022-11-04T04:29:52.436Z,98735.72
2022-11-04T04:30:24.147Z,98740.03
2022-11-04T04:31:00.093Z,98736.53
2022-11-04T04:31:32.069Z,98740.53
2022-11-04T04:32:03.780Z,98738.38
2022-11-04T04:32:44.068Z,98740.91
2022-11-04T04:33:16.039Z,98736.53
2022-11-04T04:33:47.709Z,98732.72
2022-11-04T04:34:20.035Z,98735.03
2022-11-04T04:34:51.587Z,98738.56
2022-11-04T04:35:27.498Z,98735.59
2022-11-04T04:35:59.028Z,98744.53
2022-11-04T04:36:31.418Z,98741.56
2022-11-04T04:37:06.877Z,98742.56
2022-11-04T04:37:38.409Z,98740.53
2022-11-04T04:38:22.749Z,98751.59
2022-11-04T04:38:54.317Z,98750.06
2022-11-04T04:39:26.198Z,98741.56
2022-11-04T04:39:58.363Z,98746.91
2022-11-04T04:40:29.899Z,98747.22
2022-11-04T04:41:04.923Z,98742.56
2022-11-04T04:41:36.642Z,98742.03
2022-11-04T04:42:08.220Z,98753.88
2022-11-04T04:42:39.798Z,98747.91
2022-11-04T04:43:14.784Z,98754.56
2022-11-04T04:43:46.554Z,98749.22
2022-11-04T04:44:24.118Z,98758.06
2022-11-04T04:44:55.716Z,98757.88
2022-11-04T04:45:29.795Z,98752.22
2022-11-04T04:46:01.312Z,98752.41
2022-11-04T04:46:32.886Z,98752.72
2022-11-04T04:47:04.425Z,98751.91
2022-11-04T04:47:38.286Z,98761.22
2022-11-04T04:48:10.428Z,98745.88
2022-11-04T04:48:42.093Z,98750.22
2022-11-04T04:49:13.690Z,98762.25
2022-11-04T04:49:51.871Z,98752.72
2022-11-04T04:50:23.433Z,98752.72
2022-11-04T04:50:55.005Z,98754.91
2022-11-04T04:51:26.580Z,98757.88
2022-11-04T04:51:58.112Z,98757.56
2022-11-04T04:52:33.007Z,98761.53
2022-11-04T04:53:04.598Z,98759.59
2022-11-04T04:53:36.237Z,98762.06
2022-11-04T04:54:07.922Z,98760.53
2022-11-04T04:54:39.603Z,98759.38
2022-11-04T04:55:11.220Z,98767.59
2022-11-04T04:55:42.818Z,98767.03
2022-11-04T04:56:14.426Z,98759.22
2022-11-04T04:56:46.886Z,98764.53
2022-11-04T04:57:18.471Z,98766.38
2022-11-04T04:57:50.008Z,98755.88
2022-11-04T04:58:21.506Z,98766.56
2022-11-04T04:58:53.069Z,98776.22
2022-11-04T04:59:24.697Z,98767.56
2022-11-04T04:59:56.262Z,98767.56
2022-11-04T05:00:27.766Z,98771.41
2022-11-04T05:00:59.483Z,98772.88
2022-11-04T05:01:31.261Z,98772.72
2022-11-04T05:02:03.035Z,98771.72
2022-11-04T05:02:34.803Z,98779.88
2022-11-04T05:03:06.735Z,98769.72
2022-11-04T05:03:42.435Z,98774.06
2022-11-04T05:04:16.692Z,98777.22
2022-11-04T05:04:48.258Z,98778.91
2022-11-04T05:05:19.852Z,98771.88
2022-11-04T05:05:52.683Z,98789.25
2022-11-04T05:06:26.850Z,98776.41
2022-11-04T05:06:58.399Z,98780.88
2022-11-04T05:07:30.461Z,98781.25
2022-11-04T05:08:07.635Z,98786.22
2022-11-04T05:08:39.767Z,98782.06
2022-11-04T05:09:11.313Z,98789.91
2022-11-04T05:09:42.901Z,98780.53
2022-11-04T05:10:14.900Z,98791.72
2022-11-04T05:10:46.463Z,98792.75
2022-11-04T05:11:20.526Z,98781.72
2022-11-04T05:11:55.745Z,98792.72
2022-11-04T05:12:27.484Z,98790.72
2022-11-04T05:12:59.581Z,98792.22
2022-11-04T05:13:31.193Z,98790.88
2022-11-04T05:14:02.776Z,98796.19
2022-11-04T05:14:34.362Z,98788.03
2022-11-04T05:15:06.271Z,98795.91
2022-11-04T05:15:37.843Z,98803.22
2022-11-04T05:16:09.933Z,98798.56
2022-11-04T05:16:41.535Z,98799.91
2022-11-04T05:17:13.207Z,98799.03
2022-11-04T05:17:44.815Z,98809.22
2022-11-04T05:18:16.464Z,98799.91
2022-11-04T05:18:47.973Z,98797.41
2022-11-04T05:19:19.449Z,98806.56
2022-11-04T05:19:51.027Z,98805.41
2022-11-04T05:20:22.619Z,98811.56
2022-11-04T05:20:54.232Z,98811.06
2022-11-04T05:21:25.834Z,98809.72
2022-11-04T05:21:57.400Z,98808.72
2022-11-04T05:22:29.062Z,98806.88
2022-11-04T05:23:00.654Z,98805.72
2022-11-04T05:23:32.669Z,98806.72
2022-11-04T05:24:04.365Z,98810.91
2022-11-04T05:24:35.984Z,98809.22
2022-11-04T05:25:07.683Z,98809.56
2022-11-04T05:25:39.960Z,98813.25
2022-11-04T05:26:11.516Z,98804.91
2022-11-04T05:26:43.148Z,98813.25
2022-11-04T05:27:14.687Z,98807.91
2022-11-04T05:27:46.296Z,98800.41
2022-11-04T05:28:17.780Z,98806.75
2022-11-04T05:28:49.374Z,98810.75
2022-11-04T05:29:20.992Z,98809.38
2022-11-04T05:29:52.590Z,98813.09
2022-11-04T05:30:24.200Z,98810.91
2022-11-04T05:30:55.888Z,98811.22
2022-11-04T05:31:27.470Z,98810.22
2022-11-04T05:31:59.072Z,98813.91
2022-11-04T05:32:30.655Z,98816.56
2022-11-04T05:33:04.866Z,98819.56
2022-11-04T05:33:37.074Z,98817.22
2022-11-04T05:34:10.395Z,98812.38
2022-11-04T05:34:41.934Z,98812.91
2022-11-04T05:35:13.629Z,98813.06
2022-11-04T05:35:45.239Z,98809.38
2022-11-04T05:36:16.971Z,98815.22
2022-11-04T05:36:48.721Z,98811.56
2022-11-04T05:37:20.296Z,98814.56
2022-11-04T05:37:51.868Z,98813.25
2022-11-04T05:38:23.455Z,98815.53
2022-11-04T05:38:55.265Z,98822.06
2022-11-04T05:39:26.850Z,98817.53
2022-11-04T05:39:58.516Z,98815.91
2022-11-04T05:40:30.170Z,98816.22
2022-11-04T05:41:04.744Z,98814.69
2022-11-04T05:41:36.349Z,98819.22
2022-11-04T05:42:07.889Z,98811.06
2022-11-04T05:42:39.543Z,98809.88
2022-11-04T05:43:11.453Z,98820.72
2022-11-04T05:43:43.272Z,98818.56
2022-11-04T05:44:14.822Z,98816.06
2022-11-04T05:44:46.415Z,98808.22
2022-11-04T05:45:18.058Z,98812.88
2022-11-04T05:45:49.633Z,98816.09
2022-11-04T05:46:21.515Z,98806.41
2022-11-04T05:46:53.118Z,98811.41
2022-11-04T05:47:24.725Z,98816.56
2022-11-04T05:48:02.537Z,98814.56
2022-11-04T05:48:39.268Z,98811.22
2022-11-04T05:49:12.100Z,98820.22
2022-11-04T05:49:43.678Z,98816.22
2022-11-04T05:50:15.255Z,98812.88
2022-11-04T05:50:46.818Z,98811.22
2022-11-04T05:51:19.405Z,98815.38
2022-11-04T05:51:50.998Z,98814.38
2022-11-04T05:52:22.661Z,98810.56
2022-11-04T05:52:54.248Z,98812.22
2022-11-04T05:53:28.754Z,98811.38
2022-11-04T05:54:00.540Z,98808.53
2022-11-04T05:54:32.156Z,98809.53
2022-11-04T05:55:03.826Z,98815.59
2022-11-04T05:55:35.356Z,98807.22
2022-11-04T05:56:07.029Z,98818.06
2022-11-04T05:56:38.629Z,98808.41
2022-11-04T05:57:10.467Z,98810.25
2022-11-04T05:57:42.082Z,98815.59
2022-11-04T05:58:13.761Z,98814.22
2022-11-04T05:58:45.363Z,98814.06
2022-11-04T05:59:16.897Z,98812.56
2022-11-04T05:59:48.482Z,98809.53
2022-11-04T06:00:20.192Z,98817.53
2022-11-04T06:00:51.754Z,98807.22
2022-11-04T06:01:26.043Z,98814.56
2022-11-04T06:01:57.798Z,98817.88
2022-11-04T06:02:29.586Z,98813.22
2022-11-04T06:03:01.252Z,98815.38
2022-11-04T06:03:32.998Z,98811.72
2022-11-04T06:04:04.734Z,98812.06
2022-11-04T06:04:36.359Z,98819.88
2022-11-04T06:05:08.328Z,98817.72
2022-11-04T06:05:39.962Z,98822.22
2022-11-04T06:06:11.552Z,98828.91
2022-11-04T06:06:43.215Z,98827.91
2022-11-04T06:07:14.817Z,98823.72
2022-11-04T06:07:46.406Z,98822.38
2022-11-04T06:08:17.929Z,98833.22
2022-11-04T06:08:49.936Z,98824.22
2022-11-04T06:09:21.610Z,98828.06
2022-11-04T06:09:53.165Z,98822.22
2022-11-04T06:10:24.829Z,98830.06
2022-11-04T06:10:56.423Z,98831.06
2022-11-04T06:11:28.373Z,98826.91
2022-11-04T06:11:59.912Z,98830.06
2022-11-04T06:12:31.440Z,98834.91
2022-11-04T06:13:03.026Z,98838.56
2022-11-04T06:13:34.627Z,98840.06
2022-11-04T06:14:06.252Z,98840.53
2022-11-04T06:14:37.836Z,98840.41
2022-11-04T06:15:09.606Z,98831.03
2022-11-04T06:15:41.172Z,98840.53
2022-11-04T06:16:12.779Z,98838.88
2022-11-04T06:16:44.330Z,98836.91
2022-11-04T06:17:16.365Z,98837.75
2022-11-04T06:17:47.938Z,98832.25
2022-11-04T06:18:19.439Z,98839.38
2022-11-04T06:18:51.186Z,98838.41
2022-11-04T06:19:22.807Z,98840.25
2022-11-04T06:19:54.338Z,98838.03
2022-11-04T06:20:25.993Z,98835.38
2022-11-04T06:21:10.511Z,98841.53
2022-11-04T06:21:42.112Z,98843.88
2022-11-04T06:22:17.159Z,98839.22
2022-11-04T06:22:48.796Z,98840.06
2022-11-04T06:23:20.329Z,98831.22
2022-11-04T06:23:52.279Z,98839.06
2022-11-04T06:24:23.920Z,98840.22
2022-11-04T06:24:55.522Z,98842.91
2022-11-04T06:25:27.075Z,98842.03
2022-11-04T06:25:58.869Z,98843.56
2022-11-04T06:26:30.516Z,98840.22
2022-11-04T06:27:02.070Z,98842.56
2022-11-04T06:27:33.746Z,98845.88
2022-11-04T06:28:05.267Z,98847.91
2022-11-04T06:28:36.804Z,98849.06
2022-11-04T06:29:08.428Z,98846.38
2022-11-04T06:29:39.982Z,98850.03
2022-11-04T06:30:11.799Z,98844.88
2022-11-04T06:30:43.364Z,98855.03
2022-11-04T06:31:15.160Z,98848.56
2022-11-04T06:31:46.757Z,98850.22
2022-11-04T06:32:18.429Z,98852.53
2022-11-04T06:32:50.144Z,98854.38